MAUNA LOA HI US current weather conditions

sailwx.info

Wind from 003 at 9 knots gusting 18

Air temperature 18.3° C
Dewpoint 14.0° C

Last reported at 2015-Apr-27 23:34 UTC.
Time now 2015-Apr-28 00:37 UTC

Location: N 19°28' W 155°22'.
View on Google Maps.

See reports from other nearby stations

  
Tides and Currents Weather Stations Pressure Air Temp Water Temp Dewpoint Dewpoint Depression Visibility Wind Speed Wind Dir Waves Ship Positions
date/time (UTC)wind fromknots sea level pressurealtimeterstation pressurevisibilityair tempwater tempwave heightnotes
2015-Apr-27 23:34 003 9 gusting 18 18.3
2015-Apr-27 22:34 005 8 gusting 16 18.3
2015-Apr-27 21:34 022 7 gusting 18 17.8
2015-Apr-27 20:34 028 7 gusting 17 19.4
2015-Apr-27 19:34 005 6 gusting 14 20.0
2015-Apr-27 18:34 053 3 gusting 10 16.1
2015-Apr-27 17:34 216 0 gusting 6 13.3
2015-Apr-27 16:34 294 0 gusting 6 10.0
2015-Apr-27 15:34 348 2 gusting 5 9.4
2015-Apr-27 14:34 331 3 gusting 8 10.6
2015-Apr-27 13:34 305 5 gusting 10 11.1
2015-Apr-27 12:34 351 2 gusting 4 10.6
2015-Apr-27 11:34 293 1 gusting 4 12.2
2015-Apr-27 10:34 293 3 gusting 5 12.2
2015-Apr-27 09:34 327 1 gusting 4 12.2
2015-Apr-27 08:34 007 0 gusting 3 12.2
2015-Apr-27 07:34 237 0 gusting 2 12.2
2015-Apr-27 06:34 017 1 gusting 4 13.9
2015-Apr-27 05:34 058 1 gusting 6 13.9
2015-Apr-27 04:34 121 0 gusting 3 14.4
2015-Apr-27 03:34 111 2 gusting 4 15.0
2015-Apr-27 02:34 104 0 gusting 4 15.0
2015-Apr-27 01:34 160 1 gusting 3 15.6
2015-Apr-27 00:34 147 1 gusting 4 15.6
2015-Apr-26 23:34 146 2 gusting 4 15.6
2015-Apr-26 22:34 147 1 gusting 4 15.6
2015-Apr-26 21:34 153 2 gusting 6 16.1
2015-Apr-26 20:34 181 2 gusting 6 17.2
2015-Apr-26 19:34 150 3 gusting 7 16.7
2015-Apr-26 18:34 171 3 gusting 6 16.7
2015-Apr-26 17:34 204 2 gusting 4 14.4
2015-Apr-26 16:34 290 3 gusting 5 10.0
2015-Apr-26 15:34 275 3 gusting 5 8.9
2015-Apr-26 14:34 279 3 gusting 6 9.4
2015-Apr-26 13:34 264 5 gusting 6 10.0
2015-Apr-26 12:34 267 3 gusting 6 9.4
2015-Apr-26 11:34 274 4 gusting 6 10.6
2015-Apr-26 10:34 12.2
2015-Apr-26 09:34 093 0 gusting 2 12.2
2015-Apr-26 08:34 12.2
2015-Apr-26 07:34 118 1 gusting 3 12.8
2015-Apr-26 06:34 116 0 gusting 2 12.8
2015-Apr-26 05:34 115 1 gusting 4 13.3
2015-Apr-26 04:34 129 2 gusting 4 13.3
2015-Apr-26 03:34 161 2 gusting 5 13.9
2015-Apr-26 02:34 136 2 gusting 6 14.4
2015-Apr-26 01:34 142 2 gusting 6 15.0
2015-Apr-26 00:34 136 3 gusting 9 15.0